sensor_id;sensor_type;location;lat;lon;timestamp;temperature;humidity
13148;DHT22;6639;50.956;4.242;2023-07-13T00:01:04;24.00;94.80
13148;DHT22;6639;50.956;4.242;2023-07-13T00:03:33;24.00;94.50
13148;DHT22;6639;50.956;4.242;2023-07-13T00:06:01;23.90;94.70
13148;DHT22;6639;50.956;4.242;2023-07-13T00:08:30;23.90;94.80
13148;DHT22;6639;50.956;4.242;2023-07-13T00:10:58;23.90;94.80
13148;DHT22;6639;50.956;4.242;2023-07-13T00:13:25;23.90;94.80
13148;DHT22;6639;50.956;4.242;2023-07-13T00:15:52;23.90;95.40
13148;DHT22;6639;50.956;4.242;2023-07-13T00:18:20;23.80;95.00
13148;DHT22;6639;50.956;4.242;2023-07-13T00:20:48;23.90;95.20
13148;DHT22;6639;50.956;4.242;2023-07-13T00:23:15;23.80;95.40
13148;DHT22;6639;50.956;4.242;2023-07-13T00:25:43;23.80;95.30
13148;DHT22;6639;50.956;4.242;2023-07-13T00:28:10;23.90;95.30
13148;DHT22;6639;50.956;4.242;2023-07-13T00:30:37;24.00;95.00
13148;DHT22;6639;50.956;4.242;2023-07-13T00:33:04;23.90;95.30
13148;DHT22;6639;50.956;4.242;2023-07-13T00:35:31;23.90;95.40
13148;DHT22;6639;50.956;4.242;2023-07-13T00:38:00;23.60;95.40
13148;DHT22;6639;50.956;4.242;2023-07-13T00:40:27;23.60;95.70
13148;DHT22;6639;50.956;4.242;2023-07-13T00:42:57;23.50;95.90
13148;DHT22;6639;50.956;4.242;2023-07-13T00:48:32;22.90;96.60
13148;DHT22;6639;50.956;4.242;2023-07-13T00:51:01;22.70;97.30
13148;DHT22;6639;50.956;4.242;2023-07-13T00:53:31;23.20;97.40
13148;DHT22;6639;50.956;4.242;2023-07-13T00:55:59;23.40;96.80
13148;DHT22;6639;50.956;4.242;2023-07-13T00:58:28;23.50;96.80
13148;DHT22;6639;50.956;4.242;2023-07-13T01:00:55;23.60;96.50
13148;DHT22;6639;50.956;4.242;2023-07-13T01:03:22;23.70;96.20
13148;DHT22;6639;50.956;4.242;2023-07-13T01:05:50;24.00;96.20
13148;DHT22;6639;50.956;4.242;2023-07-13T01:08:17;24.20;95.70
13148;DHT22;6639;50.956;4.242;2023-07-13T01:10:53;24.20;95.50
13148;DHT22;6639;50.956;4.242;2023-07-13T01:13:20;24.30;95.60
13148;DHT22;6639;50.956;4.242;2023-07-13T01:15:49;24.20;95.50
13148;DHT22;6639;50.956;4.242;2023-07-13T01:18:19;24.30;95.70
13148;DHT22;6639;50.956;4.242;2023-07-13T01:20:51;24.40;95.50
13148;DHT22;6639;50.956;4.242;2023-07-13T01:23:18;24.40;95.40
13148;DHT22;6639;50.956;4.242;2023-07-13T01:25:45;24.60;95.50
13148;DHT22;6639;50.956;4.242;2023-07-13T01:28:12;24.70;95.00
13148;DHT22;6639;50.956;4.242;2023-07-13T01:30:40;24.80;95.00
13148;DHT22;6639;50.956;4.242;2023-07-13T01:33:11;24.80;94.80
13148;DHT22;6639;50.956;4.242;2023-07-13T01:35:38;24.90;94.60
13148;DHT22;6639;50.956;4.242;2023-07-13T01:38:07;24.90;94.70
13148;DHT22;6639;50.956;4.242;2023-07-13T01:40:36;24.80;94.80
13148;DHT22;6639;50.956;4.242;2023-07-13T01:43:03;24.70;94.80
13148;DHT22;6639;50.956;4.242;2023-07-13T01:45:30;24.70;94.60
13148;DHT22;6639;50.956;4.242;2023-07-13T01:47:57;24.80;94.70
13148;DHT22;6639;50.956;4.242;2023-07-13T01:50:25;24.80;94.70
13148;DHT22;6639;50.956;4.242;2023-07-13T01:52:52;24.50;95.00
13148;DHT22;6639;50.956;4.242;2023-07-13T01:55:21;24.50;95.20
13148;DHT22;6639;50.956;4.242;2023-07-13T01:57:48;24.50;95.30
13148;DHT22;6639;50.956;4.242;2023-07-13T02:00:16;24.30;95.50
13148;DHT22;6639;50.956;4.242;2023-07-13T02:02:43;24.20;95.50
13148;DHT22;6639;50.956;4.242;2023-07-13T02:05:11;23.80;96.00
13148;DHT22;6639;50.956;4.242;2023-07-13T02:07:38;23.80;96.20
13148;DHT22;6639;50.956;4.242;2023-07-13T02:10:06;24.00;96.20
13148;DHT22;6639;50.956;4.242;2023-07-13T02:12:35;24.10;95.90
13148;DHT22;6639;50.956;4.242;2023-07-13T02:15:03;23.70;96.40
13148;DHT22;6639;50.956;4.242;2023-07-13T02:17:30;23.70;96.40
13148;DHT22;6639;50.956;4.242;2023-07-13T02:19:57;23.80;96.60
13148;DHT22;6639;50.956;4.242;2023-07-13T02:22:24;23.60;96.70
13148;DHT22;6639;50.956;4.242;2023-07-13T02:24:51;23.80;96.60
13148;DHT22;6639;50.956;4.242;2023-07-13T02:27:18;24.00;96.40
13148;DHT22;6639;50.956;4.242;2023-07-13T02:29:46;24.00;96.10
13148;DHT22;6639;50.956;4.242;2023-07-13T02:32:13;23.80;96.40
13148;DHT22;6639;50.956;4.242;2023-07-13T02:34:41;23.70;96.50
13148;DHT22;6639;50.956;4.242;2023-07-13T02:37:08;23.70;96.50
13148;DHT22;6639;50.956;4.242;2023-07-13T02:39:35;23.20;97.10
13148;DHT22;6639;50.956;4.242;2023-07-13T02:42:02;23.40;97.40
13148;DHT22;6639;50.956;4.242;2023-07-13T02:44:29;23.50;97.20
13148;DHT22;6639;50.956;4.242;2023-07-13T02:46:57;23.40;97.20
13148;DHT22;6639;50.956;4.242;2023-07-13T02:49:24;23.40;97.60
13148;DHT22;6639;50.956;4.242;2023-07-13T02:51:51;23.00;97.90
13148;DHT22;6639;50.956;4.242;2023-07-13T02:54:18;23.10;98.20
13148;DHT22;6639;50.956;4.242;2023-07-13T02:56:45;23.00;98.00
13148;DHT22;6639;50.956;4.242;2023-07-13T02:59:12;22.90;98.40
13148;DHT22;6639;50.956;4.242;2023-07-13T03:01:39;23.10;98.40
13148;DHT22;6639;50.956;4.242;2023-07-13T03:04:08;23.10;98.30
13148;DHT22;6639;50.956;4.242;2023-07-13T03:06:35;23.30;97.90
13148;DHT22;6639;50.956;4.242;2023-07-13T03:09:02;23.60;97.70
13148;DHT22;6639;50.956;4.242;2023-07-13T03:11:29;23.80;97.60
13148;DHT22;6639;50.956;4.242;2023-07-13T03:13:56;23.50;97.30
13148;DHT22;6639;50.956;4.242;2023-07-13T03:16:23;23.60;97.70
13148;DHT22;6639;50.956;4.242;2023-07-13T03:18:50;23.50;97.60
13148;DHT22;6639;50.956;4.242;2023-07-13T03:21:19;23.60;97.90
13148;DHT22;6639;50.956;4.242;2023-07-13T03:23:46;23.40;97.90
13148;DHT22;6639;50.956;4.242;2023-07-13T03:26:15;23.70;98.00
13148;DHT22;6639;50.956;4.242;2023-07-13T03:28:42;23.50;97.80
13148;DHT22;6639;50.956;4.242;2023-07-13T03:31:11;23.60;97.90
13148;DHT22;6639;50.956;4.242;2023-07-13T03:33:38;23.50;98.00
13148;DHT22;6639;50.956;4.242;2023-07-13T03:36:07;23.20;98.40
13148;DHT22;6639;50.956;4.242;2023-07-13T03:38:36;23.20;98.60
13148;DHT22;6639;50.956;4.242;2023-07-13T03:41:03;22.80;99.00
13148;DHT22;6639;50.956;4.242;2023-07-13T03:43:30;22.90;99.50
13148;DHT22;6639;50.956;4.242;2023-07-13T03:45:57;23.30;99.10
13148;DHT22;6639;50.956;4.242;2023-07-13T03:48:23;23.20;99.10
13148;DHT22;6639;50.956;4.242;2023-07-13T03:50:50;22.50;99.30
13148;DHT22;6639;50.956;4.242;2023-07-13T03:53:17;22.80;99.90
13148;DHT22;6639;50.956;4.242;2023-07-13T03:55:46;23.10;99.90
13148;DHT22;6639;50.956;4.242;2023-07-13T03:58:33;22.90;99.80
13148;DHT22;6639;50.956;4.242;2023-07-13T04:01:00;22.90;99.90
13148;DHT22;6639;50.956;4.242;2023-07-13T04:03:29;23.00;99.90
13148;DHT22;6639;50.956;4.242;2023-07-13T04:05:58;22.40;99.90
13148;DHT22;6639;50.956;4.242;2023-07-13T04:08:27;22.60;99.90
13148;DHT22;6639;50.956;4.242;2023-07-13T04:10:55;22.70;99.90
13148;DHT22;6639;50.956;4.242;2023-07-13T04:13:23;22.80;99.90
13148;DHT22;6639;50.956;4.242;2023-07-13T04:15:51;22.80;99.90
13148;DHT22;6639;50.956;4.242;2023-07-13T04:18:18;22.60;99.90
13148;DHT22;6639;50.956;4.242;2023-07-13T04:20:45;22.50;99.90
13148;DHT22;6639;50.956;4.242;2023-07-13T04:23:12;22.70;99.90
13148;DHT22;6639;50.956;4.242;2023-07-13T04:25:42;22.40;99.90
13148;DHT22;6639;50.956;4.242;2023-07-13T04:28:11;22.00;99.90
13148;DHT22;6639;50.956;4.242;2023-07-13T04:30:38;22.40;99.90
13148;DHT22;6639;50.956;4.242;2023-07-13T04:33:04;22.50;99.90
13148;DHT22;6639;50.956;4.242;2023-07-13T04:35:31;22.40;99.90
13148;DHT22;6639;50.956;4.242;2023-07-13T04:37:58;22.20;99.90
13148;DHT22;6639;50.956;4.242;2023-07-13T04:40:27;22.50;99.90
13148;DHT22;6639;50.956;4.242;2023-07-13T04:42:54;22.70;99.90
13148;DHT22;6639;50.956;4.242;2023-07-13T04:45:24;22.30;99.90
13148;DHT22;6639;50.956;4.242;2023-07-13T04:47:52;22.30;99.90
13148;DHT22;6639;50.956;4.242;2023-07-13T04:50:19;22.20;99.90
13148;DHT22;6639;50.956;4.242;2023-07-13T04:52:49;22.20;99.90
13148;DHT22;6639;50.956;4.242;2023-07-13T04:55:16;22.10;99.90
13148;DHT22;6639;50.956;4.242;2023-07-13T04:57:43;22.40;99.90
13148;DHT22;6639;50.956;4.242;2023-07-13T05:00:11;22.60;99.90
13148;DHT22;6639;50.956;4.242;2023-07-13T05:02:40;22.50;99.90
13148;DHT22;6639;50.956;4.242;2023-07-13T05:05:07;22.60;99.90
13148;DHT22;6639;50.956;4.242;2023-07-13T05:07:34;22.30;99.90
13148;DHT22;6639;50.956;4.242;2023-07-13T05:10:02;22.30;99.90
13148;DHT22;6639;50.956;4.242;2023-07-13T05:12:29;22.00;99.90
13148;DHT22;6639;50.956;4.242;2023-07-13T05:14:56;22.10;99.90
13148;DHT22;6639;50.956;4.242;2023-07-13T05:17:23;22.20;99.90
13148;DHT22;6639;50.956;4.242;2023-07-13T05:19:52;22.20;99.90
13148;DHT22;6639;50.956;4.242;2023-07-13T05:22:19;22.00;99.90
13148;DHT22;6639;50.956;4.242;2023-07-13T05:24:45;22.10;99.90
13148;DHT22;6639;50.956;4.242;2023-07-13T05:27:12;22.10;99.90
13148;DHT22;6639;50.956;4.242;2023-07-13T05:29:39;22.30;99.90
13148;DHT22;6639;50.956;4.242;2023-07-13T05:32:06;22.00;99.90
13148;DHT22;6639;50.956;4.242;2023-07-13T05:34:33;22.00;99.90
13148;DHT22;6639;50.956;4.242;2023-07-13T05:37:02;22.20;99.90
13148;DHT22;6639;50.956;4.242;2023-07-13T05:39:29;22.40;99.90
13148;DHT22;6639;50.956;4.242;2023-07-13T05:41:55;22.40;99.90
13148;DHT22;6639;50.956;4.242;2023-07-13T05:44:22;22.50;99.90
13148;DHT22;6639;50.956;4.242;2023-07-13T05:46:49;22.40;99.90
13148;DHT22;6639;50.956;4.242;2023-07-13T05:49:16;22.20;99.90
13148;DHT22;6639;50.956;4.242;2023-07-13T05:51:43;22.20;99.90
13148;DHT22;6639;50.956;4.242;2023-07-13T05:54:11;22.00;99.90
13148;DHT22;6639;50.956;4.242;2023-07-13T05:56:38;21.90;99.90
13148;DHT22;6639;50.956;4.242;2023-07-13T05:59:05;22.00;99.90
13148;DHT22;6639;50.956;4.242;2023-07-13T06:01:32;22.30;99.90
13148;DHT22;6639;50.956;4.242;2023-07-13T06:03:59;22.70;99.90
13148;DHT22;6639;50.956;4.242;2023-07-13T06:06:26;22.70;99.90
13148;DHT22;6639;50.956;4.242;2023-07-13T06:08:53;22.80;99.90
13148;DHT22;6639;50.956;4.242;2023-07-13T06:11:24;22.90;99.90
13148;DHT22;6639;50.956;4.242;2023-07-13T06:13:52;22.80;99.90
13148;DHT22;6639;50.956;4.242;2023-07-13T06:16:20;22.60;99.90
13148;DHT22;6639;50.956;4.242;2023-07-13T06:18:47;22.70;99.90
13148;DHT22;6639;50.956;4.242;2023-07-13T06:21:16;22.70;99.90
13148;DHT22;6639;50.956;4.242;2023-07-13T06:23:43;22.80;99.90
13148;DHT22;6639;50.956;4.242;2023-07-13T06:26:10;23.00;99.90
13148;DHT22;6639;50.956;4.242;2023-07-13T06:28:39;22.90;99.90
13148;DHT22;6639;50.956;4.242;2023-07-13T06:31:07;23.10;99.90
13148;DHT22;6639;50.956;4.242;2023-07-13T06:33:35;22.90;99.90
13148;DHT22;6639;50.956;4.242;2023-07-13T06:36:03;22.90;99.90
13148;DHT22;6639;50.956;4.242;2023-07-13T06:38:30;22.90;99.90
13148;DHT22;6639;50.956;4.242;2023-07-13T06:40:57;23.30;99.90
13148;DHT22;6639;50.956;4.242;2023-07-13T06:43:25;23.20;99.90
13148;DHT22;6639;50.956;4.242;2023-07-13T06:45:55;22.80;99.90
13148;DHT22;6639;50.956;4.242;2023-07-13T06:48:22;22.70;99.90
13148;DHT22;6639;50.956;4.242;2023-07-13T06:50:50;22.90;99.90
13148;DHT22;6639;50.956;4.242;2023-07-13T06:53:19;23.00;99.90
13148;DHT22;6639;50.956;4.242;2023-07-13T06:55:47;23.40;99.90
13148;DHT22;6639;50.956;4.242;2023-07-13T06:58:16;23.70;99.90
13148;DHT22;6639;50.956;4.242;2023-07-13T07:00:43;23.80;99.90
13148;DHT22;6639;50.956;4.242;2023-07-13T07:03:12;24.10;99.90
13148;DHT22;6639;50.956;4.242;2023-07-13T07:05:38;24.30;99.90
13148;DHT22;6639;50.956;4.242;2023-07-13T07:08:05;24.10;99.90
13148;DHT22;6639;50.956;4.242;2023-07-13T07:10:33;23.70;99.90
13148;DHT22;6639;50.956;4.242;2023-07-13T07:13:01;23.80;99.90
13148;DHT22;6639;50.956;4.242;2023-07-13T07:15:28;24.10;99.90
13148;DHT22;6639;50.956;4.242;2023-07-13T07:17:55;24.40;99.90
13148;DHT22;6639;50.956;4.242;2023-07-13T07:20:23;24.10;99.90
13148;DHT22;6639;50.956;4.242;2023-07-13T07:22:50;24.30;99.90
13148;DHT22;6639;50.956;4.242;2023-07-13T07:25:18;24.60;99.90
13148;DHT22;6639;50.956;4.242;2023-07-13T07:27:45;24.60;99.90
13148;DHT22;6639;50.956;4.242;2023-07-13T07:30:13;24.40;99.90
13148;DHT22;6639;50.956;4.242;2023-07-13T07:32:40;24.40;99.90
13148;DHT22;6639;50.956;4.242;2023-07-13T07:35:08;24.30;99.90
13148;DHT22;6639;50.956;4.242;2023-07-13T07:37:36;24.40;99.90
13148;DHT22;6639;50.956;4.242;2023-07-13T07:40:04;24.70;99.90
13148;DHT22;6639;50.956;4.242;2023-07-13T07:42:31;25.10;99.90
13148;DHT22;6639;50.956;4.242;2023-07-13T07:44:58;25.70;99.90
13148;DHT22;6639;50.956;4.242;2023-07-13T07:47:26;25.40;99.90
13148;DHT22;6639;50.956;4.242;2023-07-13T07:49:53;25.40;99.90
13148;DHT22;6639;50.956;4.242;2023-07-13T07:52:20;25.20;99.90
13148;DHT22;6639;50.956;4.242;2023-07-13T07:54:48;25.20;99.90
13148;DHT22;6639;50.956;4.242;2023-07-13T07:57:15;25.10;99.90
13148;DHT22;6639;50.956;4.242;2023-07-13T07:59:42;25.40;99.90
13148;DHT22;6639;50.956;4.242;2023-07-13T08:02:10;25.50;99.90
13148;DHT22;6639;50.956;4.242;2023-07-13T08:04:37;25.10;99.90
13148;DHT22;6639;50.956;4.242;2023-07-13T08:07:04;25.30;99.90
13148;DHT22;6639;50.956;4.242;2023-07-13T08:09:32;25.40;99.90
13148;DHT22;6639;50.956;4.242;2023-07-13T08:12:00;25.60;99.90
13148;DHT22;6639;50.956;4.242;2023-07-13T08:14:27;25.80;99.90
13148;DHT22;6639;50.956;4.242;2023-07-13T08:16:55;26.20;99.60
13148;DHT22;6639;50.956;4.242;2023-07-13T08:19:22;26.20;98.80
13148;DHT22;6639;50.956;4.242;2023-07-13T08:21:49;26.60;98.60
13148;DHT22;6639;50.956;4.242;2023-07-13T08:24:16;26.40;98.40
13148;DHT22;6639;50.956;4.242;2023-07-13T08:26:44;26.30;98.30
13148;DHT22;6639;50.956;4.242;2023-07-13T08:29:13;26.00;98.40
13148;DHT22;6639;50.956;4.242;2023-07-13T08:31:40;26.20;98.50
13148;DHT22;6639;50.956;4.242;2023-07-13T08:34:07;25.90;98.70
13148;DHT22;6639;50.956;4.242;2023-07-13T08:36:33;25.60;99.40
13148;DHT22;6639;50.956;4.242;2023-07-13T08:39:00;25.80;99.50
13148;DHT22;6639;50.956;4.242;2023-07-13T08:41:28;26.10;99.80
13148;DHT22;6639;50.956;4.242;2023-07-13T08:43:58;26.60;99.00
13148;DHT22;6639;50.956;4.242;2023-07-13T08:46:31;26.90;98.40
13148;DHT22;6639;50.956;4.242;2023-07-13T08:49:02;26.80;97.90
13148;DHT22;6639;50.956;4.242;2023-07-13T08:51:35;26.80;98.00
13148;DHT22;6639;50.956;4.242;2023-07-13T08:54:12;26.60;97.70
13148;DHT22;6639;50.956;4.242;2023-07-13T08:56:45;26.10;98.10
13148;DHT22;6639;50.956;4.242;2023-07-13T08:59:14;26.10;98.50
13148;DHT22;6639;50.956;4.242;2023-07-13T09:02:17;26.50;98.70
13148;DHT22;6639;50.956;4.242;2023-07-13T09:04:50;27.10;97.60
13148;DHT22;6639;50.956;4.242;2023-07-13T09:07:25;27.10;96.80
13148;DHT22;6639;50.956;4.242;2023-07-13T09:10:03;27.20;96.80
13148;DHT22;6639;50.956;4.242;2023-07-13T09:12:50;27.60;96.80
13148;DHT22;6639;50.956;4.242;2023-07-13T09:15:26;27.80;96.20
13148;DHT22;6639;50.956;4.242;2023-07-13T09:17:58;28.10;96.10
13148;DHT22;6639;50.956;4.242;2023-07-13T09:20:30;28.40;95.50
13148;DHT22;6639;50.956;4.242;2023-07-13T09:23:00;28.50;94.60
13148;DHT22;6639;50.956;4.242;2023-07-13T09:25:31;28.40;94.10
13148;DHT22;6639;50.956;4.242;2023-07-13T09:28:00;28.40;94.40
13148;DHT22;6639;50.956;4.242;2023-07-13T09:30:34;27.80;94.60
13148;DHT22;6639;50.956;4.242;2023-07-13T09:33:05;27.80;94.70
13148;DHT22;6639;50.956;4.242;2023-07-13T09:35:32;27.60;94.90
13148;DHT22;6639;50.956;4.242;2023-07-13T09:38:04;27.60;95.50
13148;DHT22;6639;50.956;4.242;2023-07-13T09:40:43;28.00;94.70
13148;DHT22;6639;50.956;4.242;2023-07-13T09:43:13;27.80;94.80
13148;DHT22;6639;50.956;4.242;2023-07-13T09:45:40;27.50;95.20
13148;DHT22;6639;50.956;4.242;2023-07-13T09:48:12;28.00;94.80
13148;DHT22;6639;50.956;4.242;2023-07-13T09:50:39;28.20;94.90
13148;DHT22;6639;50.956;4.242;2023-07-13T09:53:12;28.30;94.40
13148;DHT22;6639;50.956;4.242;2023-07-13T09:55:41;28.30;94.10
13148;DHT22;6639;50.956;4.242;2023-07-13T09:58:11;28.30;94.10
13148;DHT22;6639;50.956;4.242;2023-07-13T10:00:39;28.10;94.00
13148;DHT22;6639;50.956;4.242;2023-07-13T10:03:18;28.20;93.80
13148;DHT22;6639;50.956;4.242;2023-07-13T10:05:48;27.60;94.30
13148;DHT22;6639;50.956;4.242;2023-07-13T10:08:22;27.20;94.60
13148;DHT22;6639;50.956;4.242;2023-07-13T10:10:54;27.30;95.50
13148;DHT22;6639;50.956;4.242;2023-07-13T10:13:32;27.70;95.10
13148;DHT22;6639;50.956;4.242;2023-07-13T10:16:00;28.10;94.80
13148;DHT22;6639;50.956;4.242;2023-07-13T10:18:40;28.20;94.30
13148;DHT22;6639;50.956;4.242;2023-07-13T10:21:15;27.90;93.20
13148;DHT22;6639;50.956;4.242;2023-07-13T10:23:43;27.90;93.40
13148;DHT22;6639;50.956;4.242;2023-07-13T10:26:16;27.90;93.30
13148;DHT22;6639;50.956;4.242;2023-07-13T10:28:46;28.40;94.10
13148;DHT22;6639;50.956;4.242;2023-07-13T10:31:16;28.90;92.90
13148;DHT22;6639;50.956;4.242;2023-07-13T10:33:45;28.80;92.50
13148;DHT22;6639;50.956;4.242;2023-07-13T10:36:16;28.60;92.50
13148;DHT22;6639;50.956;4.242;2023-07-13T10:38:45;28.40;92.50
13148;DHT22;6639;50.956;4.242;2023-07-13T10:41:17;28.40;93.10
13148;DHT22;6639;50.956;4.242;2023-07-13T10:43:47;28.50;92.90
13148;DHT22;6639;50.956;4.242;2023-07-13T10:46:18;28.80;93.10
13148;DHT22;6639;50.956;4.242;2023-07-13T10:48:49;28.50;93.00
13148;DHT22;6639;50.956;4.242;2023-07-13T10:51:18;28.40;93.20
13148;DHT22;6639;50.956;4.242;2023-07-13T10:53:48;28.20;94.50
13148;DHT22;6639;50.956;4.242;2023-07-13T10:56:36;28.00;94.60
13148;DHT22;6639;50.956;4.242;2023-07-13T10:59:15;28.40;94.60
13148;DHT22;6639;50.956;4.242;2023-07-13T11:01:50;28.50;94.60
13148;DHT22;6639;50.956;4.242;2023-07-13T11:04:20;28.50;95.50
13148;DHT22;6639;50.956;4.242;2023-07-13T11:06:49;28.90;94.40
13148;DHT22;6639;50.956;4.242;2023-07-13T11:09:34;29.10;93.70
13148;DHT22;6639;50.956;4.242;2023-07-13T11:12:07;29.40;93.70
13148;DHT22;6639;50.956;4.242;2023-07-13T11:14:37;29.30;92.80
13148;DHT22;6639;50.956;4.242;2023-07-13T11:17:34;29.00;92.70
13148;DHT22;6639;50.956;4.242;2023-07-13T11:20:19;28.50;93.10
13148;DHT22;6639;50.956;4.242;2023-07-13T11:22:48;28.40;92.90
13148;DHT22;6639;50.956;4.242;2023-07-13T11:25:27;28.60;92.60
13148;DHT22;6639;50.956;4.242;2023-07-13T11:28:15;28.50;92.30
13148;DHT22;6639;50.956;4.242;2023-07-13T11:30:46;28.90;92.40
13148;DHT22;6639;50.956;4.242;2023-07-13T11:33:17;29.40;92.10
13148;DHT22;6639;50.956;4.242;2023-07-13T11:35:59;28.80;91.90
13148;DHT22;6639;50.956;4.242;2023-07-13T11:38:32;28.20;92.70
13148;DHT22;6639;50.956;4.242;2023-07-13T11:41:03;27.70;93.30
13148;DHT22;6639;50.956;4.242;2023-07-13T11:43:31;27.50;93.60
13148;DHT22;6639;50.956;4.242;2023-07-13T11:46:13;27.40;94.40
13148;DHT22;6639;50.956;4.242;2023-07-13T11:48:40;27.40;94.20
13148;DHT22;6639;50.956;4.242;2023-07-13T11:51:15;27.00;95.20
13148;DHT22;6639;50.956;4.242;2023-07-13T11:53:47;27.10;95.70
13148;DHT22;6639;50.956;4.242;2023-07-13T11:56:15;27.10;95.40
13148;DHT22;6639;50.956;4.242;2023-07-13T11:58:44;27.00;95.20
13148;DHT22;6639;50.956;4.242;2023-07-13T12:01:18;26.30;97.70
13148;DHT22;6639;50.956;4.242;2023-07-13T12:03:46;25.90;99.50
13148;DHT22;6639;50.956;4.242;2023-07-13T12:06:24;25.60;99.90
13148;DHT22;6639;50.956;4.242;2023-07-13T12:08:56;25.40;99.90
13148;DHT22;6639;50.956;4.242;2023-07-13T12:11:23;25.80;99.90
13148;DHT22;6639;50.956;4.242;2023-07-13T12:13:51;26.20;99.90
13148;DHT22;6639;50.956;4.242;2023-07-13T12:16:25;26.00;99.90
13148;DHT22;6639;50.956;4.242;2023-07-13T12:18:54;26.50;99.90
13148;DHT22;6639;50.956;4.242;2023-07-13T12:21:27;26.50;99.90
13148;DHT22;6639;50.956;4.242;2023-07-13T12:23:56;26.50;99.90
13148;DHT22;6639;50.956;4.242;2023-07-13T12:26:23;26.40;99.90
13148;DHT22;6639;50.956;4.242;2023-07-13T12:28:54;26.50;99.70
13148;DHT22;6639;50.956;4.242;2023-07-13T12:31:40;26.80;99.30
13148;DHT22;6639;50.956;4.242;2023-07-13T12:34:09;27.00;99.10
13148;DHT22;6639;50.956;4.242;2023-07-13T12:36:40;27.00;99.20
13148;DHT22;6639;50.956;4.242;2023-07-13T12:39:14;27.40;98.60
13148;DHT22;6639;50.956;4.242;2023-07-13T12:41:42;27.60;98.20
13148;DHT22;6639;50.956;4.242;2023-07-13T12:44:14;27.60;98.10
13148;DHT22;6639;50.956;4.242;2023-07-13T12:46:53;27.70;97.60
13148;DHT22;6639;50.956;4.242;2023-07-13T12:49:24;27.40;97.60
13148;DHT22;6639;50.956;4.242;2023-07-13T12:51:56;27.10;97.20
13148;DHT22;6639;50.956;4.242;2023-07-13T12:54:25;27.20;97.30
13148;DHT22;6639;50.956;4.242;2023-07-13T12:56:53;27.00;97.90
13148;DHT22;6639;50.956;4.242;2023-07-13T12:59:23;27.00;97.90
13148;DHT22;6639;50.956;4.242;2023-07-13T13:01:53;26.50;98.90
13148;DHT22;6639;50.956;4.242;2023-07-13T13:04:20;26.80;98.70
13148;DHT22;6639;50.956;4.242;2023-07-13T13:06:49;27.00;98.00
13148;DHT22;6639;50.956;4.242;2023-07-13T13:09:26;27.30;98.00
13148;DHT22;6639;50.956;4.242;2023-07-13T13:11:53;27.00;98.10
13148;DHT22;6639;50.956;4.242;2023-07-13T13:14:20;27.10;97.50
13148;DHT22;6639;50.956;4.242;2023-07-13T13:16:50;27.20;97.60
13148;DHT22;6639;50.956;4.242;2023-07-13T13:19:20;27.30;96.50
13148;DHT22;6639;50.956;4.242;2023-07-13T13:21:48;27.10;96.70
13148;DHT22;6639;50.956;4.242;2023-07-13T13:24:20;27.50;96.50
13148;DHT22;6639;50.956;4.242;2023-07-13T13:26:48;27.80;96.20
13148;DHT22;6639;50.956;4.242;2023-07-13T13:29:17;28.40;96.20
13148;DHT22;6639;50.956;4.242;2023-07-13T13:31:44;28.60;95.00
13148;DHT22;6639;50.956;4.242;2023-07-13T13:34:15;28.60;95.00
13148;DHT22;6639;50.956;4.242;2023-07-13T13:36:43;28.40;94.80
13148;DHT22;6639;50.956;4.242;2023-07-13T13:39:19;28.20;95.10
13148;DHT22;6639;50.956;4.242;2023-07-13T13:41:47;28.30;95.30
13148;DHT22;6639;50.956;4.242;2023-07-13T13:44:15;28.50;94.80
13148;DHT22;6639;50.956;4.242;2023-07-13T13:46:44;28.80;94.30
13148;DHT22;6639;50.956;4.242;2023-07-13T13:49:15;28.90;94.20
13148;DHT22;6639;50.956;4.242;2023-07-13T13:51:43;29.10;94.00
13148;DHT22;6639;50.956;4.242;2023-07-13T13:54:11;29.10;93.10
13148;DHT22;6639;50.956;4.242;2023-07-13T13:56:41;28.80;92.70
13148;DHT22;6639;50.956;4.242;2023-07-13T13:59:07;28.90;92.90
13148;DHT22;6639;50.956;4.242;2023-07-13T14:01:35;28.70;93.00
13148;DHT22;6639;50.956;4.242;2023-07-13T14:04:03;28.70;92.90
13148;DHT22;6639;50.956;4.242;2023-07-13T14:06:32;28.90;93.10
13148;DHT22;6639;50.956;4.242;2023-07-13T14:09:00;28.70;92.40
13148;DHT22;6639;50.956;4.242;2023-07-13T14:11:28;28.90;92.60
13148;DHT22;6639;50.956;4.242;2023-07-13T14:13:58;29.10;92.50
13148;DHT22;6639;50.956;4.242;2023-07-13T14:16:27;29.20;92.70
13148;DHT22;6639;50.956;4.242;2023-07-13T14:18:55;29.30;92.30
13148;DHT22;6639;50.956;4.242;2023-07-13T14:21:24;29.80;92.20
13148;DHT22;6639;50.956;4.242;2023-07-13T14:23:52;30.00;92.00
13148;DHT22;6639;50.956;4.242;2023-07-13T14:26:21;29.70;91.60
13148;DHT22;6639;50.956;4.242;2023-07-13T14:28:49;29.50;92.60
13148;DHT22;6639;50.956;4.242;2023-07-13T14:31:17;29.50;92.00
13148;DHT22;6639;50.956;4.242;2023-07-13T14:33:45;29.70;94.00
13148;DHT22;6639;50.956;4.242;2023-07-13T14:36:26;30.10;95.30
13148;DHT22;6639;50.956;4.242;2023-07-13T14:38:55;30.40;95.90
13148;DHT22;6639;50.956;4.242;2023-07-13T14:41:22;30.50;95.20
13148;DHT22;6639;50.956;4.242;2023-07-13T14:43:49;30.60;94.70
13148;DHT22;6639;50.956;4.242;2023-07-13T14:46:27;30.40;94.20
13148;DHT22;6639;50.956;4.242;2023-07-13T14:49:00;30.60;94.10
13148;DHT22;6639;50.956;4.242;2023-07-13T14:51:28;30.70;94.20
13148;DHT22;6639;50.956;4.242;2023-07-13T14:53:56;30.80;93.80
13148;DHT22;6639;50.956;4.242;2023-07-13T14:56:24;30.80;94.20
13148;DHT22;6639;50.956;4.242;2023-07-13T14:58:51;30.90;94.10
13148;DHT22;6639;50.956;4.242;2023-07-13T15:01:19;30.90;92.80
13148;DHT22;6639;50.956;4.242;2023-07-13T15:03:49;31.10;92.10
13148;DHT22;6639;50.956;4.242;2023-07-13T15:06:17;31.10;91.70
13148;DHT22;6639;50.956;4.242;2023-07-13T15:08:45;31.40;92.00
13148;DHT22;6639;50.956;4.242;2023-07-13T15:11:14;31.50;91.40
13148;DHT22;6639;50.956;4.242;2023-07-13T15:13:41;31.30;90.60
13148;DHT22;6639;50.956;4.242;2023-07-13T15:16:15;31.10;91.20
13148;DHT22;6639;50.956;4.242;2023-07-13T15:18:42;31.10;90.70
13148;DHT22;6639;50.956;4.242;2023-07-13T15:21:11;30.80;90.20
13148;DHT22;6639;50.956;4.242;2023-07-13T15:23:40;31.00;90.00
13148;DHT22;6639;50.956;4.242;2023-07-13T15:26:12;30.70;87.00
13148;DHT22;6639;50.956;4.242;2023-07-13T15:28:41;30.30;89.30
13148;DHT22;6639;50.956;4.242;2023-07-13T15:31:19;30.70;90.80
13148;DHT22;6639;50.956;4.242;2023-07-13T15:33:47;30.20;87.60
13148;DHT22;6639;50.956;4.242;2023-07-13T15:36:15;30.00;88.90
13148;DHT22;6639;50.956;4.242;2023-07-13T15:38:43;30.00;87.60
13148;DHT22;6639;50.956;4.242;2023-07-13T15:41:17;30.30;87.10
13148;DHT22;6639;50.956;4.242;2023-07-13T15:43:47;30.30;86.50
13148;DHT22;6639;50.956;4.242;2023-07-13T15:46:14;30.60;87.20
13148;DHT22;6639;50.956;4.242;2023-07-13T15:48:41;30.90;84.80
13148;DHT22;6639;50.956;4.242;2023-07-13T15:51:21;31.20;86.70
13148;DHT22;6639;50.956;4.242;2023-07-13T15:53:49;31.10;84.60
13148;DHT22;6639;50.956;4.242;2023-07-13T15:56:19;30.90;83.10
13148;DHT22;6639;50.956;4.242;2023-07-13T15:58:49;30.00;82.00
13148;DHT22;6639;50.956;4.242;2023-07-13T16:01:17;29.90;82.70